Time;durP1;ratioP1;P1;durP2;ratioP2;P2;SDS_P1;SDS_P2;PMS_P1;PMS_P2;Temp;Humidity;BMP_temperature;BMP_pressure;BME280_temperature;BME280_humidity;BME280_pressure;Samples;Min_cycle;Max_cycle;Signal;HPM_P1;HPM_P2
2021/12/02 00:00:25;;;;;;;;;;;7.50;99.90;;;;;;7346738;19;111430;-77
2021/12/02 00:02:52;;;;;;;;;;;7.50;99.90;;;;;;7342282;19;112087;-77
2021/12/02 00:05:19;;;;;;;;;;;7.50;99.90;;;;;;7346187;19;112466;-77
2021/12/02 00:07:46;;;;;;;;;;;7.40;99.90;;;;;;7346988;19;112768;-77
2021/12/02 00:10:13;;;;;;;;;;;7.40;99.90;;;;;;7344333;19;110403;-77
2021/12/02 00:12:40;;;;;;;;;;;7.30;99.90;;;;;;7348444;19;109763;-78
2021/12/02 00:15:12;;;;;;;;;;;7.30;99.90;;;;;;7343966;19;112129;-77
2021/12/02 00:17:41;;;;;;;;;;;7.30;99.90;;;;;;7343645;19;109491;-77
2021/12/02 00:23:13;;;;;;;;;;;7.30;99.90;;;;;;7342172;19;113337;-77
2021/12/02 00:25:41;;;;;;;;;;;7.30;99.90;;;;;;7343269;19;109442;-77
2021/12/02 00:28:08;;;;;;;;;;;7.20;99.90;;;;;;7346185;19;110392;-76
2021/12/02 00:30:36;;;;;;;;;;;7.20;99.90;;;;;;7343335;19;114300;-76
2021/12/02 00:33:03;;;;;;;;;;;7.20;99.90;;;;;;7343321;19;110109;-77
2021/12/02 00:35:30;;;;;;;;;;;7.10;99.90;;;;;;7347395;19;111333;-77
2021/12/02 00:37:58;;;;;;;;;;;7.00;99.90;;;;;;7344387;19;109747;-77
2021/12/02 00:40:25;;;;;;;;;;;7.00;99.90;;;;;;7341787;19;114070;-77
2021/12/02 00:42:53;;;;;;;;;;;7.00;99.90;;;;;;7343809;19;112145;-76
2021/12/02 00:45:19;;;;;;;;;;;7.00;99.90;;;;;;7344052;19;109512;-77
2021/12/02 00:47:47;;;;;;;;;;;7.00;99.90;;;;;;7340154;19;111052;-77
2021/12/02 00:50:14;;;;;;;;;;;7.00;99.90;;;;;;7345222;19;111990;-77
2021/12/02 00:52:41;;;;;;;;;;;7.10;99.90;;;;;;7342848;19;109975;-77
2021/12/02 00:55:09;;;;;;;;;;;7.10;99.90;;;;;;7341303;19;111263;-76
2021/12/02 00:57:39;;;;;;;;;;;7.10;99.90;;;;;;7348747;19;111848;-77
2021/12/02 01:00:06;;;;;;;;;;;7.10;99.90;;;;;;7341767;19;110934;-77
2021/12/02 01:02:34;;;;;;;;;;;7.10;99.90;;;;;;7345412;19;110381;-77
2021/12/02 01:05:01;;;;;;;;;;;7.10;99.90;;;;;;7345760;19;109423;-79
2021/12/02 01:07:28;;;;;;;;;;;7.00;99.90;;;;;;7350820;19;110841;-80
2021/12/02 01:09:56;;;;;;;;;;;7.10;99.90;;;;;;7348674;19;111532;-80
2021/12/02 01:12:23;;;;;;;;;;;7.10;99.90;;;;;;7349197;19;111118;-78
2021/12/02 01:14:50;;;;;;;;;;;7.10;99.90;;;;;;7352973;19;110552;-79
2021/12/02 01:17:17;;;;;;;;;;;7.00;99.90;;;;;;7353093;19;112655;-77
2021/12/02 01:19:44;;;;;;;;;;;7.00;99.90;;;;;;7350313;19;113255;-79
2021/12/02 01:22:12;;;;;;;;;;;7.00;99.90;;;;;;7346306;19;112390;-77
2021/12/02 01:24:40;;;;;;;;;;;6.90;99.90;;;;;;7349499;19;109283;-79
2021/12/02 01:27:09;;;;;;;;;;;6.90;99.90;;;;;;7350713;19;112282;-77
2021/12/02 01:29:37;;;;;;;;;;;6.90;99.90;;;;;;7348213;19;111779;-77
2021/12/02 01:32:07;;;;;;;;;;;6.90;99.90;;;;;;7350712;19;109297;-77
2021/12/02 01:34:34;;;;;;;;;;;6.80;99.90;;;;;;7347105;19;110708;-80
2021/12/02 01:37:01;;;;;;;;;;;6.80;99.90;;;;;;7347210;19;112667;-78
2021/12/02 01:39:30;;;;;;;;;;;6.80;99.90;;;;;;7356585;19;109439;-79
2021/12/02 01:41:58;;;;;;;;;;;6.80;99.90;;;;;;7345313;19;112883;-79
2021/12/02 01:44:26;;;;;;;;;;;6.80;99.90;;;;;;7351401;19;109873;-80
2021/12/02 01:46:54;;;;;;;;;;;6.70;99.90;;;;;;7348532;19;111194;-80
2021/12/02 01:49:23;;;;;;;;;;;6.70;99.90;;;;;;7346647;19;112143;-81
2021/12/02 01:51:51;;;;;;;;;;;6.70;99.90;;;;;;7348392;19;109341;-79
2021/12/02 01:54:19;;;;;;;;;;;6.60;99.90;;;;;;7348363;19;111832;-79
2021/12/02 01:57:09;;;;;;;;;;;6.60;99.90;;;;;;7348744;19;110141;-77
2021/12/02 01:59:38;;;;;;;;;;;6.60;99.90;;;;;;7346389;19;109799;-78
2021/12/02 02:02:06;;;;;;;;;;;6.60;99.90;;;;;;7353672;19;113307;-77
2021/12/02 02:04:33;;;;;;;;;;;6.60;99.90;;;;;;7351063;19;111307;-78
2021/12/02 02:07:20;;;;;;;;;;;6.60;99.90;;;;;;7346873;19;110865;-76
2021/12/02 02:09:49;;;;;;;;;;;6.60;99.90;;;;;;7347239;19;115053;-78
2021/12/02 02:12:15;;;;;;;;;;;6.60;99.90;;;;;;7349485;19;109440;-77
2021/12/02 02:14:44;;;;;;;;;;;6.60;99.90;;;;;;7346721;19;111022;-78
2021/12/02 02:17:22;;;;;;;;;;;6.50;99.90;;;;;;7346056;19;112582;-80
2021/12/02 02:19:50;;;;;;;;;;;6.50;99.90;;;;;;7343958;19;110958;-79
2021/12/02 02:22:21;;;;;;;;;;;6.50;99.90;;;;;;7347458;19;111151;-81
2021/12/02 02:24:49;;;;;;;;;;;6.60;99.90;;;;;;7351965;19;111624;-80
2021/12/02 02:27:16;;;;;;;;;;;6.50;99.90;;;;;;7345397;19;111609;-76
2021/12/02 02:29:43;;;;;;;;;;;6.50;99.90;;;;;;7347797;19;112517;-80
2021/12/02 02:32:10;;;;;;;;;;;6.50;99.90;;;;;;7344593;19;109901;-79
2021/12/02 02:34:37;;;;;;;;;;;6.50;99.90;;;;;;7348721;19;110653;-77
2021/12/02 02:37:05;;;;;;;;;;;6.40;99.90;;;;;;7345058;19;112745;-80
2021/12/02 02:39:34;;;;;;;;;;;6.40;99.90;;;;;;7346061;19;109305;-78
2021/12/02 02:42:04;;;;;;;;;;;6.40;99.90;;;;;;7347194;19;111003;-80
2021/12/02 02:44:32;;;;;;;;;;;6.40;99.90;;;;;;7343314;19;115029;-79
2021/12/02 02:46:59;;;;;;;;;;;6.40;99.90;;;;;;7351220;19;109277;-77
2021/12/02 02:49:26;;;;;;;;;;;6.30;99.90;;;;;;7344109;19;112468;-78
2021/12/02 02:51:53;;;;;;;;;;;6.30;99.90;;;;;;7346688;19;110621;-77
2021/12/02 02:54:22;;;;;;;;;;;6.30;99.90;;;;;;7350589;19;110709;-79
2021/12/02 02:56:56;;;;;;;;;;;6.30;99.90;;;;;;7343784;19;112880;-78
2021/12/02 03:00:11;;;;;;;;;;;6.20;99.90;;;;;;7348029;19;109608;-80
2021/12/02 03:06:21;;;;;;;;;;;6.10;99.90;;;;;;7346774;19;112455;-77
2021/12/02 03:08:11;;;;;;;;;;;6.00;99.90;;;;;;7345584;19;109333;-80
2021/12/02 03:10:46;;;;;;;;;;;6.00;99.90;;;;;;7353494;19;112142;-76
2021/12/02 03:18:27;;;;;;;;;;;5.90;99.90;;;;;;7342284;19;112823;-79
2021/12/02 03:20:55;;;;;;;;;;;5.90;99.90;;;;;;7345529;19;110654;-78
2021/12/02 03:23:23;;;;;;;;;;;5.80;99.90;;;;;;7347948;19;110650;-78
2021/12/02 03:25:50;;;;;;;;;;;5.80;99.90;;;;;;7341186;19;112030;-77
2021/12/02 03:28:17;;;;;;;;;;;5.80;99.90;;;;;;7347354;19;109550;-78
2021/12/02 03:30:44;;;;;;;;;;;5.80;99.90;;;;;;7347160;19;111077;-80
2021/12/02 03:33:11;;;;;;;;;;;5.70;99.90;;;;;;7344537;19;110019;-78
2021/12/02 03:35:42;;;;;;;;;;;5.80;99.90;;;;;;7345727;19;111086;-79
2021/12/02 03:38:21;;;;;;;;;;;5.80;99.90;;;;;;7343050;19;110840;-78
2021/12/02 03:40:48;;;;;;;;;;;5.90;99.90;;;;;;7347147;19;110069;-80
2021/12/02 03:43:15;;;;;;;;;;;5.80;99.90;;;;;;7344607;19;111148;-78
2021/12/02 03:45:48;;;;;;;;;;;5.80;99.90;;;;;;7345426;19;112259;-77
2021/12/02 03:48:15;;;;;;;;;;;5.80;99.90;;;;;;7346529;19;109315;-78
2021/12/02 03:50:42;;;;;;;;;;;5.90;99.90;;;;;;7343060;19;110830;-79
2021/12/02 03:53:08;;;;;;;;;;;5.90;99.90;;;;;;7351979;19;112166;-78
2021/12/02 03:55:35;;;;;;;;;;;5.90;99.90;;;;;;7341342;19;111053;-80
2021/12/02 03:58:02;;;;;;;;;;;6.00;99.90;;;;;;7346469;19;112956;-80
2021/12/02 04:00:29;;;;;;;;;;;5.90;99.90;;;;;;7345287;19;109649;-77
2021/12/02 04:02:56;;;;;;;;;;;6.00;99.90;;;;;;7344759;19;111805;-78
2021/12/02 04:05:23;;;;;;;;;;;6.00;99.90;;;;;;7344597;19;111635;-79
2021/12/02 04:07:50;;;;;;;;;;;6.00;99.90;;;;;;7343542;19;109807;-77
2021/12/02 04:10:18;;;;;;;;;;;6.00;99.90;;;;;;7345496;19;111169;-78
2021/12/02 04:13:03;;;;;;;;;;;6.00;99.90;;;;;;7340860;19;111371;-77
2021/12/02 04:15:36;;;;;;;;;;;6.10;99.90;;;;;;7349665;19;109818;-79
2021/12/02 04:18:03;;;;;;;;;;;6.10;99.90;;;;;;7344847;19;113819;-79
2021/12/02 04:20:30;;;;;;;;;;;6.10;99.90;;;;;;7342383;19;109584;-78
2021/12/02 04:22:57;;;;;;;;;;;6.10;99.90;;;;;;7345275;19;110750;-80
2021/12/02 04:25:25;;;;;;;;;;;6.10;99.90;;;;;;7343449;19;112091;-77
2021/12/02 04:27:53;;;;;;;;;;;6.10;99.90;;;;;;7342456;19;109483;-78
2021/12/02 04:30:21;;;;;;;;;;;6.10;99.90;;;;;;7345250;19;111912;-77
2021/12/02 04:32:49;;;;;;;;;;;6.10;99.90;;;;;;7343138;19;112141;-79
2021/12/02 04:35:16;;;;;;;;;;;6.10;99.90;;;;;;7344628;19;109625;-80
2021/12/02 04:37:44;;;;;;;;;;;6.10;99.90;;;;;;7346270;19;109622;-77
2021/12/02 04:40:12;;;;;;;;;;;6.10;99.90;;;;;;7350646;19;109498;-77
2021/12/02 04:42:39;;;;;;;;;;;6.10;99.90;;;;;;7357085;19;110933;-77
2021/12/02 04:45:06;;;;;;;;;;;6.10;99.90;;;;;;7355646;19;112536;-78
2021/12/02 04:47:33;;;;;;;;;;;6.10;99.90;;;;;;7359744;19;109510;-76
2021/12/02 04:50:00;;;;;;;;;;;6.10;99.90;;;;;;7356870;19;110681;-77
2021/12/02 04:52:26;;;;;;;;;;;6.10;99.90;;;;;;7358457;19;111862;-78
2021/12/02 04:54:53;;;;;;;;;;;6.10;99.90;;;;;;7360165;19;109393;-78
2021/12/02 04:57:20;;;;;;;;;;;6.10;99.90;;;;;;7355671;19;110958;-77
2021/12/02 04:59:47;;;;;;;;;;;6.10;99.90;;;;;;7363803;19;111771;-81
2021/12/02 05:02:14;;;;;;;;;;;6.10;99.90;;;;;;7354774;19;110744;-80
2021/12/02 05:04:41;;;;;;;;;;;6.10;99.90;;;;;;7355866;19;112363;-77
2021/12/02 05:07:08;;;;;;;;;;;6.10;99.90;;;;;;7356937;19;110643;-78
2021/12/02 05:09:35;;;;;;;;;;;6.00;99.90;;;;;;7356902;19;110672;-77
2021/12/02 05:12:02;;;;;;;;;;;6.00;99.90;;;;;;7359419;19;112081;-76
2021/12/02 05:14:29;;;;;;;;;;;6.00;99.90;;;;;;7354154;19;109856;-77
2021/12/02 05:16:56;;;;;;;;;;;6.00;99.90;;;;;;7357632;19;111437;-77
2021/12/02 05:19:24;;;;;;;;;;;5.90;99.90;;;;;;7356135;19;111921;-77
2021/12/02 05:21:51;;;;;;;;;;;5.90;99.90;;;;;;7362696;19;109197;-78
2021/12/02 05:24:18;;;;;;;;;;;5.90;99.90;;;;;;7354876;19;113140;-77
2021/12/02 05:26:49;;;;;;;;;;;5.90;99.90;;;;;;7355524;19;120929;-77
2021/12/02 05:29:18;;;;;;;;;;;5.90;99.90;;;;;;7358645;19;112382;-77
2021/12/02 05:31:44;;;;;;;;;;;5.90;99.90;;;;;;7355410;19;112865;-77
2021/12/02 05:34:11;;;;;;;;;;;5.80;99.90;;;;;;7354832;19;109481;-77
2021/12/02 05:36:38;;;;;;;;;;;5.90;99.90;;;;;;7357115;19;110861;-77
2021/12/02 05:39:05;;;;;;;;;;;5.90;99.90;;;;;;7355713;19;111636;-77
2021/12/02 05:41:32;;;;;;;;;;;5.90;99.90;;;;;;7364588;19;109524;-77
2021/12/02 05:44:00;;;;;;;;;;;5.90;99.90;;;;;;7354351;19;115267;-77
2021/12/02 05:46:28;;;;;;;;;;;5.90;99.90;;;;;;7351853;19;110009;-77
2021/12/02 05:48:55;;;;;;;;;;;5.80;99.90;;;;;;7347901;19;110893;-77
2021/12/02 05:51:22;;;;;;;;;;;5.80;99.90;;;;;;7340532;19;112392;-77
2021/12/02 05:53:49;;;;;;;;;;;5.70;99.90;;;;;;7342388;19;109934;-77
2021/12/02 05:56:16;;;;;;;;;;;5.70;99.90;;;;;;7344207;19;110595;-77
2021/12/02 05:58:43;;;;;;;;;;;5.70;99.90;;;;;;7349316;19;111509;-77
2021/12/02 06:01:10;;;;;;;;;;;5.70;99.90;;;;;;7348864;19;109443;-77
2021/12/02 06:03:38;;;;;;;;;;;5.80;99.90;;;;;;7354170;19;110036;-77
2021/12/02 06:06:05;;;;;;;;;;;5.80;99.90;;;;;;7348279;19;109505;-77
2021/12/02 06:08:32;;;;;;;;;;;5.70;99.90;;;;;;7348199;19;110718;-77
2021/12/02 06:10:59;;;;;;;;;;;5.70;99.90;;;;;;7347359;19;111886;-77
2021/12/02 06:13:26;;;;;;;;;;;5.70;99.90;;;;;;7347855;19;109826;-77
2021/12/02 06:15:53;;;;;;;;;;;5.70;99.90;;;;;;7346913;19;109492;-77
2021/12/02 06:18:20;;;;;;;;;;;5.70;99.90;;;;;;7348762;19;116093;-77
2021/12/02 06:20:51;;;;;;;;;;;5.70;99.90;;;;;;7344753;19;109486;-77
2021/12/02 06:23:18;;;;;;;;;;;5.60;99.90;;;;;;7348723;19;111699;-77
2021/12/02 06:25:46;;;;;;;;;;;5.60;99.90;;;;;;7350691;19;112474;-78
2021/12/02 06:28:14;;;;;;;;;;;5.50;99.90;;;;;;7348906;19;115635;-77
2021/12/02 06:30:41;;;;;;;;;;;5.50;99.90;;;;;;7344938;19;112280;-76
2021/12/02 06:33:09;;;;;;;;;;;5.40;99.90;;;;;;7344746;19;110689;-77
2021/12/02 06:35:40;;;;;;;;;;;5.40;99.90;;;;;;7349296;19;111193;-77
2021/12/02 06:38:08;;;;;;;;;;;5.40;99.90;;;;;;7345585;19;111725;-77
2021/12/02 06:40:37;;;;;;;;;;;5.30;99.90;;;;;;7348074;19;109950;-77
2021/12/02 06:43:04;;;;;;;;;;;5.30;99.90;;;;;;7336178;19;110626;-77
2021/12/02 06:45:31;;;;;;;;;;;5.20;99.90;;;;;;7345855;19;112062;-77
2021/12/02 06:47:59;;;;;;;;;;;5.20;99.90;;;;;;7353980;19;109419;-77
2021/12/02 06:50:27;;;;;;;;;;;5.20;99.90;;;;;;7345437;19;111300;-77
2021/12/02 06:52:55;;;;;;;;;;;5.20;99.90;;;;;;7345654;19;111454;-77
2021/12/02 06:55:22;;;;;;;;;;;5.20;99.90;;;;;;7346580;19;109335;-76
2021/12/02 06:57:49;;;;;;;;;;;5.20;99.90;;;;;;7345205;19;111866;-76
2021/12/02 07:00:18;;;;;;;;;;;5.20;99.90;;;;;;7345598;19;109391;-77
2021/12/02 07:02:44;;;;;;;;;;;5.20;99.90;;;;;;7344495;19;110794;-77
2021/12/02 07:05:12;;;;;;;;;;;5.20;99.90;;;;;;7346485;19;112082;-77
2021/12/02 07:07:39;;;;;;;;;;;5.20;99.90;;;;;;7345211;19;111113;-77
2021/12/02 07:10:11;;;;;;;;;;;5.20;99.90;;;;;;7349614;19;110980;-78
2021/12/02 07:12:40;;;;;;;;;;;5.30;99.90;;;;;;7349249;19;109970;-77
2021/12/02 07:15:14;;;;;;;;;;;5.30;99.90;;;;;;7341637;19;110647;-77
2021/12/02 07:17:41;;;;;;;;;;;5.30;99.90;;;;;;7347933;19;112018;-77
2021/12/02 07:20:08;;;;;;;;;;;5.30;99.90;;;;;;7346243;19;109470;-77
2021/12/02 07:22:35;;;;;;;;;;;5.30;99.90;;;;;;7346633;19;110725;-77
2021/12/02 07:25:03;;;;;;;;;;;5.40;99.90;;;;;;7345170;19;111770;-77
2021/12/02 07:27:30;;;;;;;;;;;5.40;99.90;;;;;;7342726;19;109515;-77
2021/12/02 07:29:57;;;;;;;;;;;5.40;99.90;;;;;;7353035;19;111455;-77
2021/12/02 07:32:25;;;;;;;;;;;5.40;99.90;;;;;;7341713;19;109601;-77
2021/12/02 07:34:52;;;;;;;;;;;5.40;99.90;;;;;;7344577;19;111537;-77
2021/12/02 07:37:19;;;;;;;;;;;5.40;99.90;;;;;;7346420;19;111916;-77
2021/12/02 07:39:46;;;;;;;;;;;5.40;99.90;;;;;;7342287;19;109415;-77
2021/12/02 07:42:28;;;;;;;;;;;5.40;99.90;;;;;;7347230;19;111253;-77
2021/12/02 07:44:55;;;;;;;;;;;5.50;99.90;;;;;;7342895;19;112077;-77
2021/12/02 07:47:22;;;;;;;;;;;5.50;99.90;;;;;;7345182;19;109576;-77
2021/12/02 07:49:49;;;;;;;;;;;5.50;99.90;;;;;;7345390;19;110710;-78
2021/12/02 07:52:18;;;;;;;;;;;5.50;99.90;;;;;;7347678;19;111982;-77
2021/12/02 07:54:46;;;;;;;;;;;5.60;99.90;;;;;;7345080;19;110779;-77
2021/12/02 07:57:13;;;;;;;;;;;5.50;99.90;;;;;;7342146;19;111577;-77
2021/12/02 07:59:40;;;;;;;;;;;5.40;99.90;;;;;;7343209;19;109473;-77
2021/12/02 08:02:13;;;;;;;;;;;5.30;99.90;;;;;;7341054;19;111495;-77
2021/12/02 08:04:40;;;;;;;;;;;5.30;99.90;;;;;;7338930;19;115773;-77
2021/12/02 08:07:07;;;;;;;;;;;5.20;99.90;;;;;;7340248;19;109666;-77
2021/12/02 08:09:35;;;;;;;;;;;5.20;99.90;;;;;;7338815;19;110662;-77
2021/12/02 08:12:02;;;;;;;;;;;5.20;99.90;;;;;;7344332;19;111894;-77
2021/12/02 08:14:29;;;;;;;;;;;5.20;99.90;;;;;;7347541;19;109458;-78
2021/12/02 08:16:56;;;;;;;;;;;5.20;99.90;;;;;;7341111;19;112771;-76
2021/12/02 08:19:23;;;;;;;;;;;5.30;99.90;;;;;;7344881;19;109291;-77
2021/12/02 08:21:51;;;;;;;;;;;5.20;99.90;;;;;;7340579;19;110967;-77
2021/12/02 08:24:22;;;;;;;;;;;5.20;99.90;;;;;;7346140;19;113714;-76
2021/12/02 08:26:49;;;;;;;;;;;5.00;99.90;;;;;;7344493;19;109947;-77
2021/12/02 08:29:16;;;;;;;;;;;4.90;99.90;;;;;;7344759;19;111040;-76
2021/12/02 08:31:43;;;;;;;;;;;4.80;99.90;;;;;;7346381;19;112532;-77
2021/12/02 08:34:10;;;;;;;;;;;4.80;99.90;;;;;;7344004;19;109413;-77
2021/12/02 08:36:49;;;;;;;;;;;4.80;99.90;;;;;;7349446;19;111004;-77
2021/12/02 08:39:18;;;;;;;;;;;4.90;99.90;;;;;;7341899;19;109182;-76
2021/12/02 08:41:48;;;;;;;;;;;4.90;99.90;;;;;;7340623;19;110767;-77
2021/12/02 08:44:18;;;;;;;;;;;4.90;99.90;;;;;;7342078;19;113630;-77
2021/12/02 08:46:47;;;;;;;;;;;5.00;99.90;;;;;;7342634;19;109323;-77
2021/12/02 08:49:14;;;;;;;;;;;5.00;99.90;;;;;;7344103;19;110639;-77
2021/12/02 08:51:42;;;;;;;;;;;5.10;99.90;;;;;;7339442;19;112086;-78
2021/12/02 08:54:08;;;;;;;;;;;5.10;99.90;;;;;;7344326;19;109627;-79
2021/12/02 08:56:35;;;;;;;;;;;5.10;99.90;;;;;;7344309;19;113278;-78
2021/12/02 08:59:02;;;;;;;;;;;5.10;99.90;;;;;;7348384;19;111715;-78
2021/12/02 09:01:30;;;;;;;;;;;5.00;99.90;;;;;;7342104;19;111096;-78
2021/12/02 09:03:57;;;;;;;;;;;4.90;99.90;;;;;;7338570;19;115133;-79
2021/12/02 09:06:24;;;;;;;;;;;5.00;99.90;;;;;;7345072;19;109461;-79
2021/12/02 09:08:54;;;;;;;;;;;5.00;99.90;;;;;;7345297;19;111409;-79
2021/12/02 09:11:20;;;;;;;;;;;4.90;99.90;;;;;;7342751;19;110476;-79
2021/12/02 09:13:47;;;;;;;;;;;4.90;99.90;;;;;;7345916;19;109387;-81
2021/12/02 09:16:14;;;;;;;;;;;4.90;99.90;;;;;;7340908;19;111379;-79
2021/12/02 09:18:41;;;;;;;;;;;4.80;99.90;;;;;;7342463;19;110625;-81
2021/12/02 09:21:08;;;;;;;;;;;4.80;99.90;;;;;;7347808;19;109386;-79
2021/12/02 09:23:35;;;;;;;;;;;4.80;99.90;;;;;;7342591;19;112088;-81
2021/12/02 09:26:02;;;;;;;;;;;4.80;99.90;;;;;;7347377;19;109330;-82
2021/12/02 09:28:29;;;;;;;;;;;4.70;99.90;;;;;;7349945;19;110909;-79
2021/12/02 09:30:56;;;;;;;;;;;4.70;99.90;;;;;;7350433;19;111908;-79
2021/12/02 09:33:23;;;;;;;;;;;4.70;99.90;;;;;;7347864;19;109716;-79
2021/12/02 09:35:50;;;;;;;;;;;4.70;99.90;;;;;;7349749;19;110732;-80
2021/12/02 09:38:17;;;;;;;;;;;4.70;99.90;;;;;;7351882;19;111408;-79
2021/12/02 09:40:45;;;;;;;;;;;4.60;99.90;;;;;;7354073;19;109344;-81
2021/12/02 09:43:14;;;;;;;;;;;4.60;99.90;;;;;;7351343;19;111832;-82
2021/12/02 09:45:41;;;;;;;;;;;4.60;99.90;;;;;;7346951;19;109374;-79
2021/12/02 09:48:09;;;;;;;;;;;4.70;99.90;;;;;;7348875;19;111050;-79
2021/12/02 09:50:39;;;;;;;;;;;4.70;99.90;;;;;;7349577;19;112478;-81
2021/12/02 09:53:16;;;;;;;;;;;4.80;99.90;;;;;;7350468;19;109584;-79
2021/12/02 09:56:08;;;;;;;;;;;4.80;99.90;;;;;;7348389;19;111355;-79
2021/12/02 09:58:35;;;;;;;;;;;4.80;99.90;;;;;;7342744;19;111865;-79
2021/12/02 10:01:11;;;;;;;;;;;4.90;99.90;;;;;;7345470;19;109714;-78
2021/12/02 10:03:41;;;;;;;;;;;5.00;99.90;;;;;;7354593;19;110282;-80
2021/12/02 10:06:16;;;;;;;;;;;5.10;99.90;;;;;;7346763;19;109874;-78
2021/12/02 10:09:08;;;;;;;;;;;5.20;99.90;;;;;;7349883;19;110549;-79
2021/12/02 10:11:39;;;;;;;;;;;5.30;99.90;;;;;;7350657;19;114068;-81
2021/12/02 10:14:10;;;;;;;;;;;5.40;99.90;;;;;;7346264;19;116368;-79
2021/12/02 10:16:41;;;;;;;;;;;5.50;99.90;;;;;;7347090;19;110697;-79
2021/12/02 10:19:10;;;;;;;;;;;5.60;99.90;;;;;;7343719;19;112137;-81
2021/12/02 10:21:47;;;;;;;;;;;5.70;99.90;;;;;;7346546;19;113614;-79
2021/12/02 10:24:16;;;;;;;;;;;5.80;99.90;;;;;;7338208;19;112179;-79
2021/12/02 10:26:46;;;;;;;;;;;5.90;99.90;;;;;;7350866;19;112071;-79
2021/12/02 10:29:28;;;;;;;;;;;5.90;99.90;;;;;;7350555;19;112210;-79
2021/12/02 10:32:13;;;;;;;;;;;6.00;99.90;;;;;;7345967;19;112099;-79
2021/12/02 10:34:47;;;;;;;;;;;6.00;99.90;;;;;;7348421;19;109295;-79
2021/12/02 10:37:17;;;;;;;;;;;6.10;99.90;;;;;;7346403;19;110631;-79
2021/12/02 10:39:58;;;;;;;;;;;6.10;99.90;;;;;;7348597;19;112039;-79
2021/12/02 10:42:25;;;;;;;;;;;6.10;99.90;;;;;;7349452;19;109457;-81
2021/12/02 10:44:52;;;;;;;;;;;6.10;99.90;;;;;;7345805;19;112116;-79
2021/12/02 10:47:21;;;;;;;;;;;6.00;99.90;;;;;;7346919;19;113661;-79
2021/12/02 10:50:06;;;;;;;;;;;5.90;99.90;;;;;;7351808;19;110010;-79
2021/12/02 10:52:34;;;;;;;;;;;5.90;99.90;;;;;;7346212;19;113225;-82
2021/12/02 10:55:04;;;;;;;;;;;5.80;99.90;;;;;;7348951;19;109347;-82
2021/12/02 10:57:32;;;;;;;;;;;5.80;99.90;;;;;;7345878;19;111486;-80
2021/12/02 11:00:10;;;;;;;;;;;5.80;99.90;;;;;;7347696;19;112127;-82
2021/12/02 11:02:39;;;;;;;;;;;5.90;99.90;;;;;;7345322;19;109353;-79
2021/12/02 11:05:19;;;;;;;;;;;6.00;99.90;;;;;;7346067;19;112030;-79
2021/12/02 11:07:58;;;;;;;;;;;6.10;99.90;;;;;;7347305;19;110506;-81
2021/12/02 11:10:25;;;;;;;;;;;6.10;99.90;;;;;;7344266;19;109844;-82
2021/12/02 11:12:53;;;;;;;;;;;6.20;99.90;;;;;;7354414;19;111641;-79
2021/12/02 11:15:22;;;;;;;;;;;6.20;99.90;;;;;;7345843;19;110442;-83
2021/12/02 11:17:53;;;;;;;;;;;6.20;99.90;;;;;;7345671;19;114371;-79
2021/12/02 11:20:19;;;;;;;;;;;6.20;99.90;;;;;;7343014;19;112169;-83
2021/12/02 11:22:47;;;;;;;;;;;6.30;99.90;;;;;;7345158;19;114220;-83
2021/12/02 11:25:14;;;;;;;;;;;6.40;99.90;;;;;;7347697;19;110523;-80
2021/12/02 11:27:43;;;;;;;;;;;6.50;99.90;;;;;;7342536;19;112189;-80
2021/12/02 11:30:11;;;;;;;;;;;6.50;99.90;;;;;;7348563;19;110539;-79
2021/12/02 11:32:43;;;;;;;;;;;6.60;99.90;;;;;;7337569;19;110603;-81
2021/12/02 11:35:12;;;;;;;;;;;6.60;99.90;;;;;;7349677;19;112011;-81
2021/12/02 11:37:41;;;;;;;;;;;6.60;99.90;;;;;;7347451;19;109112;-80
2021/12/02 11:40:14;;;;;;;;;;;6.70;99.90;;;;;;7345207;19;112212;-82
2021/12/02 11:42:41;;;;;;;;;;;6.80;99.90;;;;;;7347060;19;110244;-80
2021/12/02 11:45:14;;;;;;;;;;;6.80;99.90;;;;;;7346279;19;110848;-80
2021/12/02 11:47:41;;;;;;;;;;;6.80;99.90;;;;;;7345665;19;112873;-80
2021/12/02 11:50:09;;;;;;;;;;;6.90;99.90;;;;;;7338705;19;109563;-79
2021/12/02 11:52:37;;;;;;;;;;;6.90;99.90;;;;;;7346286;19;111886;-80
2021/12/02 11:55:06;;;;;;;;;;;6.80;99.90;;;;;;7349692;19;112494;-80
2021/12/02 11:57:33;;;;;;;;;;;6.70;99.90;;;;;;7345004;19;113546;-79
2021/12/02 12:00:03;;;;;;;;;;;6.80;99.90;;;;;;7347889;19;112478;-80
2021/12/02 12:02:30;;;;;;;;;;;6.90;99.90;;;;;;7343229;19;110434;-82
2021/12/02 12:04:59;;;;;;;;;;;7.10;99.90;;;;;;7347143;19;111146;-81
2021/12/02 12:07:37;;;;;;;;;;;7.20;99.90;;;;;;7341198;19;112463;-81
2021/12/02 12:10:15;;;;;;;;;;;7.30;99.90;;;;;;7345875;19;109373;-80
2021/12/02 12:12:43;;;;;;;;;;;7.40;99.90;;;;;;7338675;19;111354;-81
2021/12/02 12:15:29;;;;;;;;;;;7.50;99.90;;;;;;7341629;19;112094;-81
2021/12/02 12:17:56;;;;;;;;;;;7.70;99.90;;;;;;7349252;19;111186;-79
2021/12/02 12:20:42;;;;;;;;;;;7.90;99.90;;;;;;7341461;19;114045;-80
2021/12/02 12:23:28;;;;;;;;;;;8.00;99.90;;;;;;7337944;19;111181;-80
2021/12/02 12:26:35;;;;;;;;;;;8.10;99.90;;;;;;7343316;19;113541;-83
2021/12/02 12:29:09;;;;;;;;;;;8.10;99.90;;;;;;7336402;19;110204;-79
2021/12/02 12:31:52;;;;;;;;;;;8.10;99.90;;;;;;7342477;19;109724;-81
2021/12/02 12:34:33;;;;;;;;;;;8.10;99.90;;;;;;7340130;19;111036;-82
2021/12/02 12:37:02;;;;;;;;;;;8.10;99.90;;;;;;7341121;19;112072;-80
2021/12/02 12:39:33;;;;;;;;;;;8.10;99.90;;;;;;7342059;19;111675;-80
2021/12/02 12:42:15;;;;;;;;;;;8.00;99.90;;;;;;7346253;19;109438;-79
2021/12/02 12:44:52;;;;;;;;;;;7.90;99.90;;;;;;7344692;19;109418;-81
2021/12/02 12:47:54;;;;;;;;;;;7.70;99.90;;;;;;7341040;19;110948;-79
2021/12/02 12:50:27;;;;;;;;;;;7.30;99.90;;;;;;7339439;19;113400;-79
2021/12/02 12:52:57;;;;;;;;;;;7.10;99.90;;;;;;7340564;19;109942;-80
2021/12/02 12:55:24;;;;;;;;;;;6.90;99.90;;;;;;7341780;19;111016;-79
2021/12/02 12:58:09;;;;;;;;;;;6.60;99.90;;;;;;7344306;19;112088;-79
2021/12/02 13:00:43;;;;;;;;;;;6.60;99.90;;;;;;7342647;19;109443;-79
2021/12/02 13:03:14;;;;;;;;;;;6.60;99.90;;;;;;7352475;19;110987;-79
2021/12/02 13:05:41;;;;;;;;;;;6.50;99.90;;;;;;7354681;19;111923;-79
2021/12/02 13:08:22;;;;;;;;;;;6.50;99.90;;;;;;7351973;19;111259;-80
2021/12/02 13:10:55;;;;;;;;;;;6.50;99.90;;;;;;7349014;19;113688;-80
2021/12/02 13:13:24;;;;;;;;;;;6.40;99.90;;;;;;7349340;19;109490;-82
2021/12/02 13:16:07;;;;;;;;;;;6.30;99.90;;;;;;7348919;19;109476;-82
2021/12/02 13:18:37;;;;;;;;;;;6.30;99.90;;;;;;7345712;19;111732;-82
2021/12/02 13:21:17;;;;;;;;;;;6.30;99.90;;;;;;7352184;19;110454;-80
2021/12/02 13:23:57;;;;;;;;;;;6.20;99.90;;;;;;7346973;19;110863;-79
2021/12/02 13:26:25;;;;;;;;;;;6.20;99.90;;;;;;7348323;19;115296;-83
2021/12/02 13:28:53;;;;;;;;;;;6.10;99.90;;;;;;7357250;19;109692;-79
2021/12/02 13:31:21;;;;;;;;;;;6.10;99.90;;;;;;7348112;19;111901;-79
2021/12/02 13:33:50;;;;;;;;;;;6.10;99.90;;;;;;7351033;19;109389;-82
2021/12/02 13:36:33;;;;;;;;;;;6.00;99.90;;;;;;7347256;19;109416;-78
2021/12/02 13:39:11;;;;;;;;;;;6.00;99.90;;;;;;7349769;19;111901;-81
2021/12/02 13:41:51;;;;;;;;;;;5.90;99.90;;;;;;7346978;19;109918;-79
2021/12/02 13:44:22;;;;;;;;;;;5.80;99.90;;;;;;7347503;19;110771;-80
2021/12/02 13:46:59;;;;;;;;;;;5.80;99.90;;;;;;7350595;19;110660;-79
2021/12/02 13:49:32;;;;;;;;;;;5.90;99.90;;;;;;7346302;19;109429;-80
2021/12/02 13:55:06;;;;;;;;;;;5.90;99.90;;;;;;7348634;19;109755;-82
2021/12/02 13:57:46;;;;;;;;;;;5.90;99.90;;;;;;7346631;19;113204;-80
2021/12/02 14:00:15;;;;;;;;;;;5.90;99.90;;;;;;7350016;19;112241;-83
2021/12/02 14:03:04;;;;;;;;;;;6.00;99.90;;;;;;7347697;19;111178;-83
2021/12/02 14:05:32;;;;;;;;;;;6.00;99.90;;;;;;7348641;19;110687;-81
2021/12/02 14:08:00;;;;;;;;;;;6.00;99.90;;;;;;7346502;19;112841;-80
2021/12/02 14:10:28;;;;;;;;;;;5.90;99.90;;;;;;7346435;19;110075;-80
2021/12/02 14:13:00;;;;;;;;;;;6.00;99.90;;;;;;7352941;19;112319;-80
2021/12/02 14:15:28;;;;;;;;;;;6.10;99.90;;;;;;7347898;19;109715;-80
2021/12/02 14:18:06;;;;;;;;;;;6.10;99.90;;;;;;7349065;19;113062;-80
2021/12/02 14:20:36;;;;;;;;;;;6.10;99.90;;;;;;7344254;19;110215;-81
2021/12/02 14:23:04;;;;;;;;;;;6.10;99.90;;;;;;7345138;19;109671;-79
2021/12/02 14:25:32;;;;;;;;;;;6.10;99.90;;;;;;7344562;19;110680;-79
2021/12/02 14:28:08;;;;;;;;;;;6.20;99.90;;;;;;7345715;19;112082;-79
2021/12/02 14:30:35;;;;;;;;;;;6.20;99.90;;;;;;7348262;19;109618;-82
2021/12/02 14:33:04;;;;;;;;;;;6.30;99.90;;;;;;7347244;19;111780;-82
2021/12/02 14:35:40;;;;;;;;;;;6.40;99.90;;;;;;7349614;19;113073;-80
2021/12/02 14:38:36;;;;;;;;;;;6.40;99.90;;;;;;7343645;19;111861;-81
2021/12/02 14:41:08;;;;;;;;;;;6.50;99.90;;;;;;7344126;19;114186;-81
2021/12/02 14:43:35;;;;;;;;;;;6.50;99.90;;;;;;7346696;19;109610;-83
2021/12/02 14:46:11;;;;;;;;;;;6.50;99.90;;;;;;7347231;19;111073;-80